sensor_id;sensor_type;location;lat;lon;timestamp;P1;durP1;ratioP1;P2;durP2;ratioP2
52456;SDS011;38369;52.840;7.082;2022-11-20T00:01:13;39.97;;;24.45;;
52456;SDS011;38369;52.840;7.082;2022-11-20T00:03:40;35.58;;;22.42;;
52456;SDS011;38369;52.840;7.082;2022-11-20T00:06:07;36.00;;;23.08;;
52456;SDS011;38369;52.840;7.082;2022-11-20T00:08:34;34.65;;;22.77;;
52456;SDS011;38369;52.840;7.082;2022-11-20T00:11:16;37.05;;;22.05;;
52456;SDS011;38369;52.840;7.082;2022-11-20T00:13:43;37.55;;;21.58;;
52456;SDS011;38369;52.840;7.082;2022-11-20T00:16:10;37.30;;;23.10;;
52456;SDS011;38369;52.840;7.082;2022-11-20T00:18:37;33.25;;;21.88;;
52456;SDS011;38369;52.840;7.082;2022-11-20T00:23:29;31.60;;;21.73;;
52456;SDS011;38369;52.840;7.082;2022-11-20T00:25:55;35.47;;;25.30;;
52456;SDS011;38369;52.840;7.082;2022-11-20T00:28:21;33.15;;;20.92;;
52456;SDS011;38369;52.840;7.082;2022-11-20T00:30:47;30.60;;;20.25;;
52456;SDS011;38369;52.840;7.082;2022-11-20T00:33:13;31.75;;;20.70;;
52456;SDS011;38369;52.840;7.082;2022-11-20T00:35:39;30.83;;;20.42;;
52456;SDS011;38369;52.840;7.082;2022-11-20T00:38:05;34.53;;;21.15;;
52456;SDS011;38369;52.840;7.082;2022-11-20T00:40:31;32.53;;;21.33;;
52456;SDS011;38369;52.840;7.082;2022-11-20T00:42:57;31.65;;;20.80;;
52456;SDS011;38369;52.840;7.082;2022-11-20T00:45:23;30.00;;;19.90;;
52456;SDS011;38369;52.840;7.082;2022-11-20T00:47:49;31.48;;;19.42;;
52456;SDS011;38369;52.840;7.082;2022-11-20T00:50:15;32.25;;;20.73;;
52456;SDS011;38369;52.840;7.082;2022-11-20T00:52:41;32.95;;;21.50;;
52456;SDS011;38369;52.840;7.082;2022-11-20T00:55:07;32.17;;;22.67;;
52456;SDS011;38369;52.840;7.082;2022-11-20T00:57:34;32.83;;;21.17;;
52456;SDS011;38369;52.840;7.082;2022-11-20T01:00:00;33.72;;;21.58;;
52456;SDS011;38369;52.840;7.082;2022-11-20T01:02:26;29.45;;;19.33;;
52456;SDS011;38369;52.840;7.082;2022-11-20T01:04:52;33.10;;;21.15;;
52456;SDS011;38369;52.840;7.082;2022-11-20T01:07:18;33.00;;;20.75;;
52456;SDS011;38369;52.840;7.082;2022-11-20T01:09:44;29.48;;;19.83;;
52456;SDS011;38369;52.840;7.082;2022-11-20T01:12:10;30.67;;;21.33;;
52456;SDS011;38369;52.840;7.082;2022-11-20T01:14:36;30.40;;;21.17;;
52456;SDS011;38369;52.840;7.082;2022-11-20T01:17:02;28.25;;;18.63;;
52456;SDS011;38369;52.840;7.082;2022-11-20T01:19:28;30.25;;;19.58;;
52456;SDS011;38369;52.840;7.082;2022-11-20T01:21:54;30.88;;;19.55;;
52456;SDS011;38369;52.840;7.082;2022-11-20T01:24:21;31.42;;;19.70;;
52456;SDS011;38369;52.840;7.082;2022-11-20T01:26:48;30.10;;;18.27;;
52456;SDS011;38369;52.840;7.082;2022-11-20T01:29:15;29.58;;;18.38;;
52456;SDS011;38369;52.840;7.082;2022-11-20T01:31:42;29.65;;;18.25;;
52456;SDS011;38369;52.840;7.082;2022-11-20T01:34:12;34.50;;;20.48;;
52456;SDS011;38369;52.840;7.082;2022-11-20T01:36:39;27.05;;;18.45;;
52456;SDS011;38369;52.840;7.082;2022-11-20T01:39:06;32.53;;;20.35;;
52456;SDS011;38369;52.840;7.082;2022-11-20T01:41:33;26.52;;;17.98;;
52456;SDS011;38369;52.840;7.082;2022-11-20T01:44:19;31.88;;;18.55;;
52456;SDS011;38369;52.840;7.082;2022-11-20T01:46:55;32.78;;;20.23;;
52456;SDS011;38369;52.840;7.082;2022-11-20T01:52:01;27.88;;;19.27;;
52456;SDS011;38369;52.840;7.082;2022-11-20T01:54:32;28.17;;;19.40;;
52456;SDS011;38369;52.840;7.082;2022-11-20T01:57:00;28.73;;;19.10;;
52456;SDS011;38369;52.840;7.082;2022-11-20T01:59:26;27.00;;;18.75;;
52456;SDS011;38369;52.840;7.082;2022-11-20T02:01:53;27.92;;;18.83;;
52456;SDS011;38369;52.840;7.082;2022-11-20T02:04:20;29.65;;;18.90;;
52456;SDS011;38369;52.840;7.082;2022-11-20T02:06:51;33.65;;;19.75;;
52456;SDS011;38369;52.840;7.082;2022-11-20T02:09:20;31.45;;;19.10;;
52456;SDS011;38369;52.840;7.082;2022-11-20T02:11:46;26.67;;;17.42;;
52456;SDS011;38369;52.840;7.082;2022-11-20T02:14:12;29.25;;;19.00;;
52456;SDS011;38369;52.840;7.082;2022-11-20T02:16:40;30.92;;;18.42;;
52456;SDS011;38369;52.840;7.082;2022-11-20T02:19:26;27.98;;;19.17;;
52456;SDS011;38369;52.840;7.082;2022-11-20T02:24:19;31.90;;;20.23;;
52456;SDS011;38369;52.840;7.082;2022-11-20T02:29:35;31.80;;;19.67;;
52456;SDS011;38369;52.840;7.082;2022-11-20T02:34:27;34.53;;;21.73;;
52456;SDS011;38369;52.840;7.082;2022-11-20T02:36:54;29.63;;;18.98;;
52456;SDS011;38369;52.840;7.082;2022-11-20T02:39:20;28.35;;;19.13;;
52456;SDS011;38369;52.840;7.082;2022-11-20T02:41:47;29.85;;;17.88;;
52456;SDS011;38369;52.840;7.082;2022-11-20T02:44:13;31.58;;;19.30;;
52456;SDS011;38369;52.840;7.082;2022-11-20T02:46:39;29.63;;;18.98;;
52456;SDS011;38369;52.840;7.082;2022-11-20T02:49:05;26.65;;;18.02;;
52456;SDS011;38369;52.840;7.082;2022-11-20T02:51:32;29.95;;;18.98;;
52456;SDS011;38369;52.840;7.082;2022-11-20T02:53:58;28.67;;;17.33;;
52456;SDS011;38369;52.840;7.082;2022-11-20T02:56:24;26.98;;;17.58;;
52456;SDS011;38369;52.840;7.082;2022-11-20T02:58:50;25.23;;;17.73;;
52456;SDS011;38369;52.840;7.082;2022-11-20T03:01:16;26.77;;;18.02;;
52456;SDS011;38369;52.840;7.082;2022-11-20T03:03:42;27.25;;;17.55;;
52456;SDS011;38369;52.840;7.082;2022-11-20T03:06:08;29.13;;;18.58;;
52456;SDS011;38369;52.840;7.082;2022-11-20T03:08:35;32.85;;;18.83;;
52456;SDS011;38369;52.840;7.082;2022-11-20T03:11:05;27.67;;;18.75;;
52456;SDS011;38369;52.840;7.082;2022-11-20T03:13:31;27.80;;;18.52;;
52456;SDS011;38369;52.840;7.082;2022-11-20T03:15:57;26.73;;;17.65;;
52456;SDS011;38369;52.840;7.082;2022-11-20T03:18:23;26.90;;;17.55;;
52456;SDS011;38369;52.840;7.082;2022-11-20T03:20:49;27.02;;;16.98;;
52456;SDS011;38369;52.840;7.082;2022-11-20T03:23:16;25.20;;;17.83;;
52456;SDS011;38369;52.840;7.082;2022-11-20T03:25:42;27.65;;;19.08;;
52456;SDS011;38369;52.840;7.082;2022-11-20T03:28:08;31.45;;;19.40;;
52456;SDS011;38369;52.840;7.082;2022-11-20T03:30:34;25.13;;;17.75;;
52456;SDS011;38369;52.840;7.082;2022-11-20T03:33:00;28.02;;;18.80;;
52456;SDS011;38369;52.840;7.082;2022-11-20T03:35:26;28.73;;;18.13;;
52456;SDS011;38369;52.840;7.082;2022-11-20T03:37:52;30.33;;;18.00;;
52456;SDS011;38369;52.840;7.082;2022-11-20T03:40:18;26.27;;;17.70;;
52456;SDS011;38369;52.840;7.082;2022-11-20T03:42:44;32.47;;;18.80;;
52456;SDS011;38369;52.840;7.082;2022-11-20T03:45:10;27.00;;;17.25;;
52456;SDS011;38369;52.840;7.082;2022-11-20T03:47:37;25.83;;;18.05;;
52456;SDS011;38369;52.840;7.082;2022-11-20T03:50:03;24.85;;;15.98;;
52456;SDS011;38369;52.840;7.082;2022-11-20T03:52:29;27.13;;;17.15;;
52456;SDS011;38369;52.840;7.082;2022-11-20T03:54:55;27.35;;;17.55;;
52456;SDS011;38369;52.840;7.082;2022-11-20T03:57:21;24.83;;;16.95;;
52456;SDS011;38369;52.840;7.082;2022-11-20T03:59:47;24.90;;;16.65;;
52456;SDS011;38369;52.840;7.082;2022-11-20T04:02:13;27.70;;;16.20;;
52456;SDS011;38369;52.840;7.082;2022-11-20T04:04:39;26.80;;;16.83;;
52456;SDS011;38369;52.840;7.082;2022-11-20T04:07:05;25.40;;;17.30;;
52456;SDS011;38369;52.840;7.082;2022-11-20T04:09:31;29.75;;;17.08;;
52456;SDS011;38369;52.840;7.082;2022-11-20T04:11:57;25.55;;;17.45;;
52456;SDS011;38369;52.840;7.082;2022-11-20T04:14:23;31.85;;;17.38;;
52456;SDS011;38369;52.840;7.082;2022-11-20T04:16:49;25.52;;;16.95;;
52456;SDS011;38369;52.840;7.082;2022-11-20T04:19:16;30.85;;;18.58;;
52456;SDS011;38369;52.840;7.082;2022-11-20T04:21:42;27.70;;;18.30;;
52456;SDS011;38369;52.840;7.082;2022-11-20T04:24:09;22.77;;;16.42;;
52456;SDS011;38369;52.840;7.082;2022-11-20T04:26:35;25.08;;;16.73;;
52456;SDS011;38369;52.840;7.082;2022-11-20T04:29:02;24.40;;;16.55;;
52456;SDS011;38369;52.840;7.082;2022-11-20T04:31:29;26.65;;;16.80;;
52456;SDS011;38369;52.840;7.082;2022-11-20T04:33:58;23.38;;;15.55;;
52456;SDS011;38369;52.840;7.082;2022-11-20T04:36:25;24.17;;;16.75;;
52456;SDS011;38369;52.840;7.082;2022-11-20T04:38:55;22.45;;;15.35;;
52456;SDS011;38369;52.840;7.082;2022-11-20T04:41:22;24.13;;;15.80;;
52456;SDS011;38369;52.840;7.082;2022-11-20T04:43:49;27.23;;;16.65;;
52456;SDS011;38369;52.840;7.082;2022-11-20T04:46:19;22.95;;;15.93;;
52456;SDS011;38369;52.840;7.082;2022-11-20T04:48:46;24.25;;;16.00;;
52456;SDS011;38369;52.840;7.082;2022-11-20T04:51:12;21.40;;;14.73;;
52456;SDS011;38369;52.840;7.082;2022-11-20T04:53:38;23.02;;;16.17;;
52456;SDS011;38369;52.840;7.082;2022-11-20T04:56:06;20.63;;;14.70;;
52456;SDS011;38369;52.840;7.082;2022-11-20T04:58:32;20.33;;;14.65;;
52456;SDS011;38369;52.840;7.082;2022-11-20T05:01:06;25.83;;;16.65;;
52456;SDS011;38369;52.840;7.082;2022-11-20T05:03:32;23.55;;;14.43;;
52456;SDS011;38369;52.840;7.082;2022-11-20T05:06:02;22.77;;;16.02;;
52456;SDS011;38369;52.840;7.082;2022-11-20T05:08:29;23.65;;;15.65;;
52456;SDS011;38369;52.840;7.082;2022-11-20T05:11:05;25.10;;;15.93;;
52456;SDS011;38369;52.840;7.082;2022-11-20T05:13:32;21.65;;;15.55;;
52456;SDS011;38369;52.840;7.082;2022-11-20T05:16:02;21.70;;;14.18;;
52456;SDS011;38369;52.840;7.082;2022-11-20T05:18:28;22.55;;;15.05;;
52456;SDS011;38369;52.840;7.082;2022-11-20T05:20:55;23.08;;;15.63;;
52456;SDS011;38369;52.840;7.082;2022-11-20T05:23:21;24.05;;;15.95;;
52456;SDS011;38369;52.840;7.082;2022-11-20T05:25:47;23.05;;;15.93;;
52456;SDS011;38369;52.840;7.082;2022-11-20T05:28:13;23.52;;;15.15;;
52456;SDS011;38369;52.840;7.082;2022-11-20T05:30:39;27.00;;;16.70;;
52456;SDS011;38369;52.840;7.082;2022-11-20T05:33:05;25.40;;;15.57;;
52456;SDS011;38369;52.840;7.082;2022-11-20T05:35:31;22.58;;;16.13;;
52456;SDS011;38369;52.840;7.082;2022-11-20T05:37:57;26.33;;;16.70;;
52456;SDS011;38369;52.840;7.082;2022-11-20T05:40:23;23.58;;;16.10;;
52456;SDS011;38369;52.840;7.082;2022-11-20T05:42:49;24.50;;;16.45;;
52456;SDS011;38369;52.840;7.082;2022-11-20T05:45:15;23.58;;;15.95;;
52456;SDS011;38369;52.840;7.082;2022-11-20T05:47:41;25.25;;;16.30;;
52456;SDS011;38369;52.840;7.082;2022-11-20T05:50:07;22.48;;;15.13;;
52456;SDS011;38369;52.840;7.082;2022-11-20T05:52:33;23.90;;;15.85;;
52456;SDS011;38369;52.840;7.082;2022-11-20T05:54:59;24.25;;;15.02;;
52456;SDS011;38369;52.840;7.082;2022-11-20T05:57:26;21.13;;;14.70;;
52456;SDS011;38369;52.840;7.082;2022-11-20T05:59:52;23.42;;;15.20;;
52456;SDS011;38369;52.840;7.082;2022-11-20T06:02:18;24.35;;;17.13;;
52456;SDS011;38369;52.840;7.082;2022-11-20T06:04:44;23.55;;;16.10;;
52456;SDS011;38369;52.840;7.082;2022-11-20T06:07:10;22.48;;;15.50;;
52456;SDS011;38369;52.840;7.082;2022-11-20T06:09:36;21.38;;;14.70;;
52456;SDS011;38369;52.840;7.082;2022-11-20T06:12:02;24.40;;;16.80;;
52456;SDS011;38369;52.840;7.082;2022-11-20T06:14:28;26.70;;;16.63;;
52456;SDS011;38369;52.840;7.082;2022-11-20T06:16:54;25.02;;;16.00;;
52456;SDS011;38369;52.840;7.082;2022-11-20T06:19:20;23.42;;;15.50;;
52456;SDS011;38369;52.840;7.082;2022-11-20T06:21:47;27.38;;;18.80;;
52456;SDS011;38369;52.840;7.082;2022-11-20T06:24:14;24.50;;;16.13;;
52456;SDS011;38369;52.840;7.082;2022-11-20T06:26:40;23.10;;;14.68;;
52456;SDS011;38369;52.840;7.082;2022-11-20T06:29:06;21.67;;;15.27;;
52456;SDS011;38369;52.840;7.082;2022-11-20T06:31:32;24.23;;;15.93;;
52456;SDS011;38369;52.840;7.082;2022-11-20T06:34:02;25.70;;;16.95;;
52456;SDS011;38369;52.840;7.082;2022-11-20T06:36:29;23.95;;;15.68;;
52456;SDS011;38369;52.840;7.082;2022-11-20T06:38:55;22.20;;;15.55;;
52456;SDS011;38369;52.840;7.082;2022-11-20T06:41:21;22.38;;;15.20;;
52456;SDS011;38369;52.840;7.082;2022-11-20T06:43:47;22.42;;;14.68;;
52456;SDS011;38369;52.840;7.082;2022-11-20T06:46:14;24.85;;;16.67;;
52456;SDS011;38369;52.840;7.082;2022-11-20T06:48:42;24.65;;;16.45;;
52456;SDS011;38369;52.840;7.082;2022-11-20T06:51:08;24.52;;;15.93;;
52456;SDS011;38369;52.840;7.082;2022-11-20T06:53:35;25.50;;;16.52;;
52456;SDS011;38369;52.840;7.082;2022-11-20T06:56:01;22.85;;;14.57;;
52456;SDS011;38369;52.840;7.082;2022-11-20T06:58:28;20.88;;;14.77;;
52456;SDS011;38369;52.840;7.082;2022-11-20T07:01:04;23.83;;;15.65;;
52456;SDS011;38369;52.840;7.082;2022-11-20T07:03:31;24.90;;;14.60;;
52456;SDS011;38369;52.840;7.082;2022-11-20T07:05:57;20.70;;;14.93;;
52456;SDS011;38369;52.840;7.082;2022-11-20T07:08:24;23.40;;;16.10;;
52456;SDS011;38369;52.840;7.082;2022-11-20T07:10:50;21.60;;;14.10;;
52456;SDS011;38369;52.840;7.082;2022-11-20T07:13:16;22.83;;;16.77;;
52456;SDS011;38369;52.840;7.082;2022-11-20T07:15:42;22.58;;;15.13;;
52456;SDS011;38369;52.840;7.082;2022-11-20T07:18:08;26.73;;;16.00;;
52456;SDS011;38369;52.840;7.082;2022-11-20T07:20:34;22.98;;;15.20;;
52456;SDS011;38369;52.840;7.082;2022-11-20T07:23:00;21.95;;;15.10;;
52456;SDS011;38369;52.840;7.082;2022-11-20T07:25:27;24.02;;;14.68;;
52456;SDS011;38369;52.840;7.082;2022-11-20T07:28:00;24.67;;;14.48;;
52456;SDS011;38369;52.840;7.082;2022-11-20T07:30:27;22.95;;;15.02;;
52456;SDS011;38369;52.840;7.082;2022-11-20T07:32:53;22.63;;;14.65;;
52456;SDS011;38369;52.840;7.082;2022-11-20T07:35:20;23.90;;;15.27;;
52456;SDS011;38369;52.840;7.082;2022-11-20T07:37:46;26.63;;;16.50;;
52456;SDS011;38369;52.840;7.082;2022-11-20T07:40:13;22.65;;;14.15;;
52456;SDS011;38369;52.840;7.082;2022-11-20T07:42:46;26.55;;;15.70;;
52456;SDS011;38369;52.840;7.082;2022-11-20T07:45:13;24.00;;;14.27;;
52456;SDS011;38369;52.840;7.082;2022-11-20T07:47:39;26.55;;;20.27;;
52456;SDS011;38369;52.840;7.082;2022-11-20T07:50:05;32.83;;;23.65;;
52456;SDS011;38369;52.840;7.082;2022-11-20T07:52:31;25.77;;;19.33;;
52456;SDS011;38369;52.840;7.082;2022-11-20T07:54:57;28.20;;;18.10;;
52456;SDS011;38369;52.840;7.082;2022-11-20T07:57:23;23.33;;;16.27;;
52456;SDS011;38369;52.840;7.082;2022-11-20T07:59:49;24.60;;;16.17;;
52456;SDS011;38369;52.840;7.082;2022-11-20T08:02:15;25.95;;;15.52;;
52456;SDS011;38369;52.840;7.082;2022-11-20T08:04:41;24.13;;;16.58;;
52456;SDS011;38369;52.840;7.082;2022-11-20T08:07:07;28.10;;;17.73;;
52456;SDS011;38369;52.840;7.082;2022-11-20T08:09:33;23.27;;;14.00;;
52456;SDS011;38369;52.840;7.082;2022-11-20T08:11:59;22.25;;;15.02;;
52456;SDS011;38369;52.840;7.082;2022-11-20T08:14:44;23.10;;;15.20;;
52456;SDS011;38369;52.840;7.082;2022-11-20T08:17:10;22.17;;;14.48;;
52456;SDS011;38369;52.840;7.082;2022-11-20T08:19:37;22.77;;;15.27;;
52456;SDS011;38369;52.840;7.082;2022-11-20T08:22:03;22.98;;;16.33;;
52456;SDS011;38369;52.840;7.082;2022-11-20T08:24:29;24.30;;;16.13;;
52456;SDS011;38369;52.840;7.082;2022-11-20T08:26:57;26.15;;;17.23;;
52456;SDS011;38369;52.840;7.082;2022-11-20T08:29:23;23.67;;;16.75;;
52456;SDS011;38369;52.840;7.082;2022-11-20T08:31:49;21.73;;;14.30;;
52456;SDS011;38369;52.840;7.082;2022-11-20T08:34:15;20.90;;;14.43;;
52456;SDS011;38369;52.840;7.082;2022-11-20T08:36:41;22.25;;;15.10;;
52456;SDS011;38369;52.840;7.082;2022-11-20T08:39:08;24.27;;;16.10;;
52456;SDS011;38369;52.840;7.082;2022-11-20T08:41:37;20.23;;;14.68;;
52456;SDS011;38369;52.840;7.082;2022-11-20T08:44:03;24.63;;;16.95;;
52456;SDS011;38369;52.840;7.082;2022-11-20T08:46:34;21.65;;;15.55;;
52456;SDS011;38369;52.840;7.082;2022-11-20T08:49:02;21.63;;;14.85;;
52456;SDS011;38369;52.840;7.082;2022-11-20T08:51:28;20.00;;;14.32;;
52456;SDS011;38369;52.840;7.082;2022-11-20T08:53:54;21.40;;;14.85;;
52456;SDS011;38369;52.840;7.082;2022-11-20T08:56:21;26.65;;;14.48;;
52456;SDS011;38369;52.840;7.082;2022-11-20T08:58:47;18.75;;;13.13;;
52456;SDS011;38369;52.840;7.082;2022-11-20T09:01:13;20.52;;;14.43;;
52456;SDS011;38369;52.840;7.082;2022-11-20T09:03:39;17.70;;;13.43;;
52456;SDS011;38369;52.840;7.082;2022-11-20T09:06:06;26.10;;;16.25;;
52456;SDS011;38369;52.840;7.082;2022-11-20T09:08:32;21.48;;;14.25;;
52456;SDS011;38369;52.840;7.082;2022-11-20T09:10:59;23.90;;;15.65;;
52456;SDS011;38369;52.840;7.082;2022-11-20T09:13:26;20.85;;;14.02;;
52456;SDS011;38369;52.840;7.082;2022-11-20T09:15:53;20.40;;;13.52;;
52456;SDS011;38369;52.840;7.082;2022-11-20T09:18:19;20.80;;;14.25;;
52456;SDS011;38369;52.840;7.082;2022-11-20T09:20:45;20.83;;;14.32;;
52456;SDS011;38369;52.840;7.082;2022-11-20T09:23:11;19.35;;;13.65;;
52456;SDS011;38369;52.840;7.082;2022-11-20T09:25:37;20.60;;;13.77;;
52456;SDS011;38369;52.840;7.082;2022-11-20T09:28:03;20.35;;;14.68;;
52456;SDS011;38369;52.840;7.082;2022-11-20T09:30:30;22.35;;;14.68;;
52456;SDS011;38369;52.840;7.082;2022-11-20T09:32:56;22.70;;;14.32;;
52456;SDS011;38369;52.840;7.082;2022-11-20T09:35:22;18.17;;;13.70;;
52456;SDS011;38369;52.840;7.082;2022-11-20T09:37:48;20.40;;;14.35;;
52456;SDS011;38369;52.840;7.082;2022-11-20T09:40:21;21.40;;;15.50;;
52456;SDS011;38369;52.840;7.082;2022-11-20T09:53:27;22.52;;;14.93;;
52456;SDS011;38369;52.840;7.082;2022-11-20T09:55:56;23.67;;;15.95;;
52456;SDS011;38369;52.840;7.082;2022-11-20T09:58:29;24.10;;;15.18;;
52456;SDS011;38369;52.840;7.082;2022-11-20T10:01:00;21.63;;;14.98;;
52456;SDS011;38369;52.840;7.082;2022-11-20T10:03:33;21.83;;;15.50;;
52456;SDS011;38369;52.840;7.082;2022-11-20T10:06:01;21.05;;;15.25;;
52456;SDS011;38369;52.840;7.082;2022-11-20T10:08:28;23.73;;;15.35;;
52456;SDS011;38369;52.840;7.082;2022-11-20T10:11:08;23.13;;;15.80;;
52456;SDS011;38369;52.840;7.082;2022-11-20T10:18:53;21.80;;;16.00;;
52456;SDS011;38369;52.840;7.082;2022-11-20T10:26:22;19.42;;;13.95;;
52456;SDS011;38369;52.840;7.082;2022-11-20T10:28:52;21.90;;;15.25;;
52456;SDS011;38369;52.840;7.082;2022-11-20T10:33:54;22.73;;;15.77;;
52456;SDS011;38369;52.840;7.082;2022-11-20T10:36:23;18.85;;;13.98;;
52456;SDS011;38369;52.840;7.082;2022-11-20T10:38:54;19.58;;;14.32;;
52456;SDS011;38369;52.840;7.082;2022-11-20T10:41:24;19.40;;;13.88;;
52456;SDS011;38369;52.840;7.082;2022-11-20T10:43:53;22.00;;;14.25;;
52456;SDS011;38369;52.840;7.082;2022-11-20T10:46:22;20.88;;;14.18;;
52456;SDS011;38369;52.840;7.082;2022-11-20T10:48:48;20.15;;;13.50;;
52456;SDS011;38369;52.840;7.082;2022-11-20T10:51:18;18.50;;;12.82;;
52456;SDS011;38369;52.840;7.082;2022-11-20T10:59:54;17.08;;;13.00;;
52456;SDS011;38369;52.840;7.082;2022-11-20T11:01:53;16.20;;;11.60;;
52456;SDS011;38369;52.840;7.082;2022-11-20T11:07:43;18.88;;;12.60;;
52456;SDS011;38369;52.840;7.082;2022-11-20T11:09:48;17.48;;;13.95;;
52456;SDS011;38369;52.840;7.082;2022-11-20T11:12:15;18.85;;;14.80;;
52456;SDS011;38369;52.840;7.082;2022-11-20T11:14:45;18.60;;;13.25;;
52456;SDS011;38369;52.840;7.082;2022-11-20T11:19:38;17.77;;;13.10;;
52456;SDS011;38369;52.840;7.082;2022-11-20T11:22:04;19.65;;;14.55;;
52456;SDS011;38369;52.840;7.082;2022-11-20T11:24:36;20.55;;;14.23;;
52456;SDS011;38369;52.840;7.082;2022-11-20T11:27:03;20.98;;;14.18;;
52456;SDS011;38369;52.840;7.082;2022-11-20T11:29:32;19.70;;;14.32;;
52456;SDS011;38369;52.840;7.082;2022-11-20T11:32:05;18.48;;;13.77;;
52456;SDS011;38369;52.840;7.082;2022-11-20T11:34:31;17.50;;;13.02;;
52456;SDS011;38369;52.840;7.082;2022-11-20T11:36:57;19.67;;;13.15;;
52456;SDS011;38369;52.840;7.082;2022-11-20T11:39:24;17.85;;;13.70;;
52456;SDS011;38369;52.840;7.082;2022-11-20T11:41:51;19.60;;;14.50;;
52456;SDS011;38369;52.840;7.082;2022-11-20T11:44:30;21.65;;;12.77;;
52456;SDS011;38369;52.840;7.082;2022-11-20T11:47:25;20.02;;;12.13;;
52456;SDS011;38369;52.840;7.082;2022-11-20T11:50:02;22.55;;;13.48;;
52456;SDS011;38369;52.840;7.082;2022-11-20T11:52:28;21.42;;;14.43;;
52456;SDS011;38369;52.840;7.082;2022-11-20T11:54:56;19.35;;;13.02;;
52456;SDS011;38369;52.840;7.082;2022-11-20T11:57:27;18.90;;;13.13;;
52456;SDS011;38369;52.840;7.082;2022-11-20T12:05:24;15.38;;;12.07;;
52456;SDS011;38369;52.840;7.082;2022-11-20T12:08:09;19.13;;;12.88;;
52456;SDS011;38369;52.840;7.082;2022-11-20T12:13:04;16.33;;;12.20;;
52456;SDS011;38369;52.840;7.082;2022-11-20T12:15:35;16.80;;;11.90;;
52456;SDS011;38369;52.840;7.082;2022-11-20T12:18:01;15.15;;;10.43;;
52456;SDS011;38369;52.840;7.082;2022-11-20T12:20:30;21.67;;;11.93;;
52456;SDS011;38369;52.840;7.082;2022-11-20T12:23:05;14.48;;;10.90;;
52456;SDS011;38369;52.840;7.082;2022-11-20T12:25:35;17.50;;;11.93;;
52456;SDS011;38369;52.840;7.082;2022-11-20T12:30:28;14.10;;;10.60;;
52456;SDS011;38369;52.840;7.082;2022-11-20T12:43:29;15.50;;;11.05;;
52456;SDS011;38369;52.840;7.082;2022-11-20T12:46:37;17.65;;;11.38;;
52456;SDS011;38369;52.840;7.082;2022-11-20T12:54:26;13.18;;;10.07;;
52456;SDS011;38369;52.840;7.082;2022-11-20T13:07:12;18.08;;;11.68;;
52456;SDS011;38369;52.840;7.082;2022-11-20T13:09:43;14.45;;;10.63;;
52456;SDS011;38369;52.840;7.082;2022-11-20T13:12:13;15.27;;;10.18;;
52456;SDS011;38369;52.840;7.082;2022-11-20T13:17:22;14.80;;;10.55;;
52456;SDS011;38369;52.840;7.082;2022-11-20T13:19:52;16.27;;;10.50;;
52456;SDS011;38369;52.840;7.082;2022-11-20T13:24:51;21.23;;;12.68;;
52456;SDS011;38369;52.840;7.082;2022-11-20T13:27:18;21.05;;;13.63;;
52456;SDS011;38369;52.840;7.082;2022-11-20T13:29:46;37.78;;;21.10;;
52456;SDS011;38369;52.840;7.082;2022-11-20T13:32:14;21.02;;;13.45;;
52456;SDS011;38369;52.840;7.082;2022-11-20T13:34:54;15.25;;;12.60;;
52456;SDS011;38369;52.840;7.082;2022-11-20T13:39:52;18.70;;;12.05;;
52456;SDS011;38369;52.840;7.082;2022-11-20T13:42:26;14.45;;;11.02;;
52456;SDS011;38369;52.840;7.082;2022-11-20T13:44:54;13.98;;;11.50;;
52456;SDS011;38369;52.840;7.082;2022-11-20T13:47:21;15.43;;;11.95;;
52456;SDS011;38369;52.840;7.082;2022-11-20T13:49:48;14.85;;;11.07;;
52456;SDS011;38369;52.840;7.082;2022-11-20T13:52:34;17.13;;;12.18;;
52456;SDS011;38369;52.840;7.082;2022-11-20T13:55:16;16.38;;;12.38;;
52456;SDS011;38369;52.840;7.082;2022-11-20T14:02:43;16.83;;;11.07;;
52456;SDS011;38369;52.840;7.082;2022-11-20T14:05:17;18.30;;;11.13;;
52456;SDS011;38369;52.840;7.082;2022-11-20T14:07:44;18.27;;;12.95;;
52456;SDS011;38369;52.840;7.082;2022-11-20T14:10:27;14.48;;;11.65;;
52456;SDS011;38369;52.840;7.082;2022-11-20T14:12:53;16.58;;;12.32;;
52456;SDS011;38369;52.840;7.082;2022-11-20T14:17:52;18.17;;;12.60;;
52456;SDS011;38369;52.840;7.082;2022-11-20T14:20:18;18.25;;;13.15;;
52456;SDS011;38369;52.840;7.082;2022-11-20T14:22:51;12.70;;;9.52;;
52456;SDS011;38369;52.840;7.082;2022-11-20T14:25:19;21.25;;;12.38;;
52456;SDS011;38369;52.840;7.082;2022-11-20T14:27:50;21.15;;;12.75;;
52456;SDS011;38369;52.840;7.082;2022-11-20T14:30:18;18.42;;;12.95;;
52456;SDS011;38369;52.840;7.082;2022-11-20T14:32:45;20.88;;;13.63;;
52456;SDS011;38369;52.840;7.082;2022-11-20T14:35:20;19.70;;;12.77;;
52456;SDS011;38369;52.840;7.082;2022-11-20T14:37:47;20.15;;;14.02;;
52456;SDS011;38369;52.840;7.082;2022-11-20T14:42:49;16.42;;;12.23;;
52456;SDS011;38369;52.840;7.082;2022-11-20T14:45:15;18.92;;;13.55;;
52456;SDS011;38369;52.840;7.082;2022-11-20T14:47:42;20.45;;;14.63;;
52456;SDS011;38369;52.840;7.082;2022-11-20T14:50:41;21.90;;;14.50;;
52456;SDS011;38369;52.840;7.082;2022-11-20T14:53:01;23.02;;;14.25;;
52456;SDS011;38369;52.840;7.082;2022-11-20T14:55:34;19.73;;;14.02;;
52456;SDS011;38369;52.840;7.082;2022-11-20T14:58:22;20.55;;;15.02;;
52456;SDS011;38369;52.840;7.082;2022-11-20T15:01:20;18.33;;;12.98;;
52456;SDS011;38369;52.840;7.082;2022-11-20T15:03:40;19.00;;;13.25;;
52456;SDS011;38369;52.840;7.082;2022-11-20T15:06:07;22.08;;;15.27;;
52456;SDS011;38369;52.840;7.082;2022-11-20T15:08:33;18.65;;;12.85;;
52456;SDS011;38369;52.840;7.082;2022-11-20T15:11:00;20.33;;;14.00;;
52456;SDS011;38369;52.840;7.082;2022-11-20T15:13:30;17.30;;;12.95;;
52456;SDS011;38369;52.840;7.082;2022-11-20T15:15:57;23.45;;;15.20;;
52456;SDS011;38369;52.840;7.082;2022-11-20T15:18:31;20.80;;;14.60;;
52456;SDS011;38369;52.840;7.082;2022-11-20T15:21:00;22.38;;;14.98;;
52456;SDS011;38369;52.840;7.082;2022-11-20T15:23:27;20.58;;;14.57;;
52456;SDS011;38369;52.840;7.082;2022-11-20T15:25:53;24.38;;;16.17;;
52456;SDS011;38369;52.840;7.082;2022-11-20T15:28:41;18.55;;;13.02;;
52456;SDS011;38369;52.840;7.082;2022-11-20T15:31:06;17.15;;;12.25;;
52456;SDS011;38369;52.840;7.082;2022-11-20T15:33:32;17.48;;;13.60;;
52456;SDS011;38369;52.840;7.082;2022-11-20T15:35:59;19.73;;;13.35;;
52456;SDS011;38369;52.840;7.082;2022-11-20T15:38:25;19.52;;;12.75;;
52456;SDS011;38369;52.840;7.082;2022-11-20T15:40:51;18.10;;;13.80;;
52456;SDS011;38369;52.840;7.082;2022-11-20T15:43:17;22.58;;;14.45;;
52456;SDS011;38369;52.840;7.082;2022-11-20T15:45:44;18.95;;;13.23;;
52456;SDS011;38369;52.840;7.082;2022-11-20T15:48:12;20.20;;;14.10;;
52456;SDS011;38369;52.840;7.082;2022-11-20T15:53:14;21.10;;;14.23;;
52456;SDS011;38369;52.840;7.082;2022-11-20T15:55:40;19.77;;;14.43;;
52456;SDS011;38369;52.840;7.082;2022-11-20T15:58:06;20.58;;;14.02;;
52456;SDS011;38369;52.840;7.082;2022-11-20T16:00:32;20.75;;;13.40;;
52456;SDS011;38369;52.840;7.082;2022-11-20T16:02:58;22.67;;;15.60;;
52456;SDS011;38369;52.840;7.082;2022-11-20T16:05:27;24.02;;;14.90;;
52456;SDS011;38369;52.840;7.082;2022-11-20T16:07:56;18.67;;;14.52;;
52456;SDS011;38369;52.840;7.082;2022-11-20T16:10:23;23.02;;;16.05;;